createdAt,value
2022-08-21T00:00:51.144Z,23.19
2022-08-21T00:02:52.508Z,23.18
2022-08-21T00:04:57.528Z,23.19
2022-08-21T00:06:59.590Z,23.22
2022-08-21T00:09:06.032Z,23.22
2022-08-21T00:11:08.054Z,23.20
2022-08-21T00:13:09.366Z,23.18
2022-08-21T00:15:11.203Z,23.15
2022-08-21T00:17:13.157Z,23.14
2022-08-21T00:19:14.475Z,23.13
2022-08-21T00:21:15.859Z,23.12
2022-08-21T00:23:17.168Z,23.14
2022-08-21T00:25:19.803Z,23.13
2022-08-21T00:27:25.571Z,23.09
2022-08-21T00:29:26.943Z,23.09
2022-08-21T00:31:28.271Z,23.07
2022-08-21T00:33:29.569Z,23.06
2022-08-21T00:35:30.901Z,23.07
2022-08-21T00:37:32.239Z,23.05
2022-08-21T00:39:36.808Z,23.06
2022-08-21T00:41:39.050Z,23.06
2022-08-21T00:43:40.800Z,23.04
2022-08-21T00:45:42.162Z,23.04
2022-08-21T00:47:43.484Z,23.01
2022-08-21T00:49:44.934Z,23.02
2022-08-21T00:51:46.274Z,22.19
2022-08-21T00:53:51.779Z,23.04
2022-08-21T00:55:56.568Z,23.05
2022-08-21T00:57:58.007Z,23.08
2022-08-21T00:59:59.307Z,23.06
2022-08-21T01:02:00.602Z,23.02
2022-08-21T01:04:02.483Z,23.02
2022-08-21T01:06:05.163Z,23.04
2022-08-21T01:08:06.543Z,23.01
2022-08-21T01:10:07.838Z,23.02
2022-08-21T01:12:09.158Z,23.03
2022-08-21T01:14:13.169Z,23.02
2022-08-21T01:16:14.470Z,23.03
2022-08-21T01:18:15.859Z,23.01
2022-08-21T01:20:17.530Z,23.01
2022-08-21T01:22:20.438Z,23.01
2022-08-21T01:24:22.212Z,23.00
2022-08-21T01:26:23.723Z,22.98
2022-08-21T01:28:32.582Z,22.97
2022-08-21T01:30:33.919Z,22.96
2022-08-21T01:32:35.223Z,22.96
2022-08-21T01:34:36.572Z,22.96
2022-08-21T01:36:37.971Z,22.97
2022-08-21T01:38:39.282Z,23.00
2022-08-21T01:40:40.601Z,22.98
2022-08-21T01:42:41.956Z,22.54
2022-08-21T01:44:43.270Z,22.95
2022-08-21T01:46:44.567Z,22.99
2022-08-21T01:48:45.940Z,22.96
2022-08-21T01:50:47.243Z,22.97
2022-08-21T01:52:54.197Z,22.94
2022-08-21T01:54:55.758Z,22.90
2022-08-21T01:56:57.232Z,22.99
2022-08-21T01:58:58.549Z,23.02
2022-08-21T02:00:59.961Z,23.02
2022-08-21T02:03:01.420Z,23.02
2022-08-21T02:05:02.725Z,23.01
2022-08-21T02:07:04.674Z,22.99
2022-08-21T02:09:09.835Z,23.00
2022-08-21T02:11:11.162Z,22.97
2022-08-21T02:13:13.318Z,23.01
2022-08-21T02:15:15.497Z,22.99
2022-08-21T02:17:16.881Z,22.98
2022-08-21T02:19:18.246Z,22.97
2022-08-21T02:21:19.579Z,22.47
2022-08-21T02:23:20.878Z,22.92
2022-08-21T02:25:28.859Z,22.92
2022-08-21T02:27:30.231Z,22.90
2022-08-21T02:29:35.414Z,22.88
2022-08-21T02:31:36.755Z,22.90
2022-08-21T02:33:38.103Z,22.89
2022-08-21T02:35:39.424Z,22.82
2022-08-21T02:37:40.744Z,22.83
2022-08-21T02:39:42.160Z,22.83
2022-08-21T02:41:43.474Z,22.80
2022-08-21T02:43:44.869Z,22.79
2022-08-21T02:45:46.180Z,22.77
2022-08-21T02:47:47.478Z,22.78
2022-08-21T02:49:48.830Z,22.76
2022-08-21T02:51:50.127Z,22.77
2022-08-21T02:53:51.731Z,22.76
2022-08-21T02:55:53.062Z,22.75
2022-08-21T02:57:54.384Z,22.73
2022-08-21T02:59:55.697Z,22.71
2022-08-21T03:01:57.280Z,22.72
2022-08-21T03:03:58.627Z,22.74
2022-08-21T03:05:59.959Z,22.73
2022-08-21T03:08:01.359Z,22.72
2022-08-21T03:10:02.660Z,22.70
2022-08-21T03:12:04.651Z,22.70
2022-08-21T03:14:06.194Z,22.67
2022-08-21T03:16:10.034Z,22.65
2022-08-21T03:18:11.994Z,22.68
2022-08-21T03:20:13.550Z,22.69
2022-08-21T03:22:14.886Z,22.68
2022-08-21T03:24:17.666Z,22.69
2022-08-21T03:26:20.926Z,22.66
2022-08-21T03:28:22.797Z,22.61
2022-08-21T03:30:24.147Z,22.62
2022-08-21T03:32:25.686Z,22.60
2022-08-21T03:34:27.042Z,22.60
2022-08-21T03:36:28.352Z,22.58
2022-08-21T03:38:29.854Z,22.58
2022-08-21T03:40:31.163Z,22.57
2022-08-21T03:42:32.467Z,22.57
2022-08-21T03:44:33.778Z,22.57
2022-08-21T03:46:35.199Z,22.57
2022-08-21T03:48:36.498Z,22.58
2022-08-21T03:50:40.949Z,22.56
2022-08-21T03:54:44.007Z,22.52
2022-08-21T03:56:45.327Z,22.51
2022-08-21T03:58:46.686Z,22.51
2022-08-21T04:00:47.978Z,22.50
2022-08-21T04:02:49.779Z,22.51
2022-08-21T04:04:51.088Z,22.51
2022-08-21T04:06:52.392Z,22.54
2022-08-21T04:08:53.690Z,22.58
2022-08-21T04:10:55.026Z,22.56
2022-08-21T04:12:56.720Z,22.53
2022-08-21T04:14:58.175Z,22.51
2022-08-21T04:16:59.476Z,22.51
2022-08-21T04:19:00.837Z,22.53
2022-08-21T04:21:02.191Z,22.53
2022-08-21T04:25:04.911Z,22.51
2022-08-21T04:27:06.212Z,22.51
2022-08-21T04:29:07.647Z,22.52
2022-08-21T04:31:11.738Z,22.53
2022-08-21T04:33:13.077Z,22.50
2022-08-21T04:35:14.378Z,22.52
2022-08-21T04:37:16.658Z,22.51
2022-08-21T04:39:17.967Z,22.48
2022-08-21T04:41:27.886Z,22.50
2022-08-21T04:43:29.628Z,22.50
2022-08-21T04:45:30.927Z,22.50
2022-08-21T04:47:41.840Z,22.48
2022-08-21T04:49:53.585Z,22.47
2022-08-21T04:51:54.898Z,22.47
2022-08-21T04:53:56.256Z,22.53
2022-08-21T04:55:57.612Z,22.48
2022-08-21T04:57:59.006Z,22.48
2022-08-21T05:00:00.307Z,22.45
2022-08-21T05:02:01.679Z,22.42
2022-08-21T05:04:03.003Z,22.44
2022-08-21T05:06:04.311Z,22.48
2022-08-21T05:10:08.698Z,22.54
2022-08-21T05:12:10.030Z,22.53
2022-08-21T05:14:12.274Z,22.50
2022-08-21T05:16:13.571Z,22.48
2022-08-21T05:18:14.886Z,22.45
2022-08-21T05:20:16.211Z,22.44
2022-08-21T05:22:17.514Z,22.46
2022-08-21T05:24:18.836Z,22.42
2022-08-21T05:26:20.166Z,22.46
2022-08-21T05:28:21.894Z,22.44
2022-08-21T05:30:23.245Z,22.44
2022-08-21T05:32:24.978Z,22.55
2022-08-21T05:34:26.347Z,22.60
2022-08-21T05:36:27.646Z,22.59
2022-08-21T05:38:29.523Z,22.59
2022-08-21T05:40:30.931Z,22.58
2022-08-21T05:42:32.259Z,22.58
2022-08-21T05:44:33.567Z,22.57
2022-08-21T05:46:36.713Z,22.57
2022-08-21T05:48:38.023Z,22.53
2022-08-21T05:50:39.421Z,22.55
2022-08-21T05:54:42.063Z,22.56
2022-08-21T05:56:45.543Z,22.55
2022-08-21T05:58:46.904Z,22.56
2022-08-21T06:00:48.614Z,22.58
2022-08-21T06:02:51.457Z,22.60
2022-08-21T06:04:52.929Z,22.62
2022-08-21T06:06:54.274Z,22.56
2022-08-21T06:08:55.583Z,22.54
2022-08-21T06:10:56.976Z,22.57
2022-08-21T06:12:58.417Z,22.54
2022-08-21T06:14:59.919Z,22.58
2022-08-21T06:17:01.244Z,22.58
2022-08-21T06:19:03.215Z,22.58
2022-08-21T06:21:04.649Z,22.56
2022-08-21T06:23:05.949Z,22.56
2022-08-21T06:25:07.545Z,22.59
2022-08-21T06:27:09.463Z,22.62
2022-08-21T06:29:13.507Z,22.59
2022-08-21T06:31:14.811Z,22.56
2022-08-21T06:33:18.189Z,22.49
2022-08-21T06:35:19.647Z,22.52
2022-08-21T06:37:21.003Z,22.53
2022-08-21T06:39:25.560Z,22.55
2022-08-21T06:41:38.981Z,22.49
2022-08-21T06:43:40.615Z,22.46
2022-08-21T06:45:41.946Z,22.47
2022-08-21T06:47:43.290Z,22.45
2022-08-21T06:49:44.587Z,22.46
2022-08-21T06:51:45.955Z,22.46
2022-08-21T06:53:47.320Z,22.41
2022-08-21T06:55:48.627Z,22.41
2022-08-21T06:57:51.828Z,22.40
2022-08-21T06:59:54.094Z,22.38
2022-08-21T07:01:55.551Z,22.40
2022-08-21T07:03:56.904Z,22.43
2022-08-21T07:05:59.450Z,22.39
2022-08-21T07:08:00.782Z,22.40
2022-08-21T07:10:02.135Z,22.47
2022-08-21T07:12:03.449Z,22.50
2022-08-21T07:14:04.749Z,22.59
2022-08-21T07:16:06.085Z,22.18
2022-08-21T07:18:07.386Z,22.10
2022-08-21T07:20:08.719Z,22.46
2022-08-21T07:22:10.119Z,22.70
2022-08-21T07:24:11.429Z,22.87
2022-08-21T07:26:12.736Z,22.98
2022-08-21T07:28:14.076Z,23.01
2022-08-21T07:30:15.379Z,23.09
2022-08-21T07:32:20.911Z,23.17
2022-08-21T07:34:22.718Z,23.25
2022-08-21T07:36:24.402Z,23.31
2022-08-21T07:38:25.715Z,23.37
2022-08-21T07:40:27.072Z,23.24
2022-08-21T07:42:28.375Z,23.10
2022-08-21T07:44:29.779Z,23.04
2022-08-21T07:46:31.450Z,22.99
2022-08-21T07:48:33.071Z,22.97
2022-08-21T07:50:34.454Z,22.95
2022-08-21T07:52:35.834Z,22.94
2022-08-21T07:54:37.179Z,22.93
2022-08-21T07:56:38.907Z,22.91
2022-08-21T07:58:40.250Z,22.92
2022-08-21T08:00:41.550Z,22.91
2022-08-21T08:02:43.189Z,22.92
2022-08-21T08:04:50.726Z,22.92
2022-08-21T08:06:52.375Z,22.94
2022-08-21T08:08:53.687Z,22.95
2022-08-21T08:10:57.288Z,22.97
2022-08-21T08:12:58.900Z,22.96
2022-08-21T08:15:00.390Z,23.42
2022-08-21T08:17:02.859Z,23.44
2022-08-21T08:19:04.466Z,23.79
2022-08-21T08:21:06.401Z,23.52
2022-08-21T08:23:07.714Z,23.25
2022-08-21T08:25:09.831Z,23.46
2022-08-21T08:27:11.247Z,23.77
2022-08-21T08:29:12.612Z,23.96
2022-08-21T08:31:13.927Z,24.00
2022-08-21T08:33:15.251Z,24.07
2022-08-21T08:35:16.563Z,24.16
2022-08-21T08:37:18.454Z,24.22
2022-08-21T08:39:26.757Z,24.26
2022-08-21T08:41:31.482Z,24.34
2022-08-21T08:43:33.159Z,24.33
2022-08-21T08:45:34.466Z,24.50
2022-08-21T08:47:35.779Z,24.58
2022-08-21T08:49:37.114Z,24.45
2022-08-21T08:51:38.491Z,24.48
2022-08-21T08:53:39.943Z,24.57
2022-08-21T08:55:41.289Z,24.64
2022-08-21T08:57:42.608Z,24.64
2022-08-21T08:59:44.046Z,24.73
2022-08-21T09:01:45.455Z,24.74
2022-08-21T09:03:50.595Z,24.77
2022-08-21T09:05:51.952Z,24.77
2022-08-21T09:07:53.264Z,24.82
2022-08-21T09:09:54.611Z,24.84
2022-08-21T09:11:55.923Z,24.92
2022-08-21T09:13:57.244Z,24.87
2022-08-21T09:15:59.390Z,24.57
2022-08-21T09:18:00.690Z,24.46
2022-08-21T09:20:07.319Z,24.62
2022-08-21T09:22:08.633Z,24.71
2022-08-21T09:24:11.766Z,24.75
2022-08-21T09:26:13.079Z,24.76
2022-08-21T09:28:15.715Z,24.79
2022-08-21T09:30:17.209Z,24.79
2022-08-21T09:32:19.553Z,25.05
2022-08-21T09:34:20.876Z,24.95
2022-08-21T09:36:22.193Z,24.94
2022-08-21T09:38:23.858Z,24.91
2022-08-21T09:40:25.378Z,24.99
2022-08-21T09:42:27.057Z,24.99
2022-08-21T09:44:28.387Z,25.01
2022-08-21T09:46:29.763Z,24.98
2022-08-21T09:48:32.959Z,24.98
2022-08-21T09:50:34.645Z,24.96
2022-08-21T09:52:35.959Z,24.99
2022-08-21T09:54:37.258Z,24.99
2022-08-21T09:56:57.459Z,24.96
2022-08-21T09:58:58.775Z,24.61
2022-08-21T10:01:00.187Z,24.41
2022-08-21T10:03:01.567Z,24.29
2022-08-21T10:05:03.130Z,24.23
2022-08-21T10:07:04.771Z,24.18
2022-08-21T10:09:06.083Z,24.15
2022-08-21T10:11:07.386Z,24.11
2022-08-21T10:13:08.723Z,24.08
2022-08-21T10:15:10.025Z,24.05
2022-08-21T10:17:11.326Z,24.05
2022-08-21T10:19:12.675Z,24.04
2022-08-21T10:21:14.019Z,24.05
2022-08-21T10:23:15.327Z,24.09
2022-08-21T10:25:16.740Z,24.13
2022-08-21T10:27:18.091Z,24.16
2022-08-21T10:29:20.347Z,24.15
2022-08-21T10:31:21.658Z,24.18
2022-08-21T10:33:22.998Z,24.19
2022-08-21T10:35:24.399Z,24.21
2022-08-21T10:37:25.726Z,23.34
2022-08-21T10:39:35.823Z,24.15
2022-08-21T10:41:37.589Z,24.12
2022-08-21T10:43:39.106Z,24.11
2022-08-21T10:45:40.440Z,24.10
2022-08-21T10:47:42.927Z,24.10
2022-08-21T10:49:44.254Z,24.12
2022-08-21T10:51:45.563Z,24.14
2022-08-21T10:53:47.816Z,24.17
2022-08-21T10:55:49.106Z,24.16
2022-08-21T10:57:50.418Z,24.13
2022-08-21T10:59:51.743Z,24.12
2022-08-21T11:01:53.059Z,24.07
2022-08-21T11:03:54.399Z,24.04
2022-08-21T11:05:55.827Z,24.00
2022-08-21T11:07:57.349Z,23.97
2022-08-21T11:10:00.870Z,23.96
2022-08-21T11:12:11.214Z,23.97
2022-08-21T11:14:13.391Z,23.99
2022-08-21T11:16:14.757Z,23.87
2022-08-21T11:18:17.554Z,23.75
2022-08-21T11:20:18.859Z,24.54
2022-08-21T11:22:20.203Z,25.29
2022-08-21T11:24:21.712Z,25.71
2022-08-21T11:26:23.068Z,25.67
2022-08-21T11:28:24.390Z,25.63
2022-08-21T11:30:25.711Z,25.50
2022-08-21T11:32:27.036Z,25.87
2022-08-21T11:34:28.350Z,26.01
2022-08-21T11:36:29.658Z,25.74
2022-08-21T11:38:31.308Z,25.80
2022-08-21T11:40:32.794Z,25.92
2022-08-21T11:42:34.110Z,25.88
2022-08-21T11:44:35.494Z,26.03
2022-08-21T11:46:36.848Z,26.02
2022-08-21T11:48:38.223Z,26.04
2022-08-21T11:50:39.571Z,26.05
2022-08-21T11:52:40.926Z,25.72
2022-08-21T11:54:44.251Z,25.00
2022-08-21T11:56:45.553Z,24.85
2022-08-21T11:58:46.912Z,24.78
2022-08-21T12:00:48.219Z,24.81
2022-08-21T12:02:49.597Z,24.81
2022-08-21T12:04:51.049Z,24.68
2022-08-21T12:06:52.448Z,24.59
2022-08-21T12:08:53.769Z,24.58
2022-08-21T12:10:55.087Z,24.55
2022-08-21T12:12:56.391Z,24.50
2022-08-21T12:14:57.700Z,24.47
2022-08-21T12:16:59.024Z,24.48
2022-08-21T12:19:00.350Z,24.43
2022-08-21T12:21:01.657Z,24.42
2022-08-21T12:23:03.008Z,24.45
2022-08-21T12:25:04.311Z,24.45
2022-08-21T12:27:05.614Z,24.42
2022-08-21T12:29:06.971Z,24.39
2022-08-21T12:31:08.271Z,24.42
2022-08-21T12:33:09.743Z,24.44
2022-08-21T12:35:15.482Z,24.37
2022-08-21T12:37:25.954Z,24.35
2022-08-21T12:39:27.286Z,24.52
2022-08-21T12:41:28.590Z,24.56
2022-08-21T12:43:29.895Z,24.61
2022-08-21T12:45:31.207Z,24.58
2022-08-21T12:47:32.562Z,24.49
2022-08-21T12:49:33.990Z,24.61
2022-08-21T12:51:35.363Z,24.55
2022-08-21T12:53:36.682Z,24.55
2022-08-21T12:55:37.991Z,24.52
2022-08-21T12:57:39.318Z,24.45
2022-08-21T12:59:40.676Z,24.45
2022-08-21T13:01:42.448Z,24.55
2022-08-21T13:03:43.772Z,24.60
2022-08-21T13:05:45.081Z,24.60
2022-08-21T13:07:46.584Z,24.56
2022-08-21T13:09:47.935Z,24.52
2022-08-21T13:11:49.598Z,24.49
2022-08-21T13:13:51.215Z,24.42
2022-08-21T13:15:54.186Z,24.52
2022-08-21T13:17:55.583Z,24.44
2022-08-21T13:19:56.998Z,24.36
2022-08-21T13:21:58.318Z,24.23
2022-08-21T13:23:59.623Z,24.12
2022-08-21T13:26:01.003Z,24.05
2022-08-21T13:28:02.461Z,24.03
2022-08-21T13:30:03.867Z,23.99
2022-08-21T13:32:05.574Z,23.86
2022-08-21T13:34:09.151Z,23.85
2022-08-21T13:36:10.518Z,24.03
2022-08-21T13:38:11.875Z,24.33
2022-08-21T13:40:14.417Z,24.68
2022-08-21T13:42:15.900Z,24.76
2022-08-21T13:44:20.409Z,24.88
2022-08-21T13:46:22.201Z,24.55
2022-08-21T13:48:24.292Z,24.17
2022-08-21T13:50:25.707Z,24.11
2022-08-21T13:52:29.992Z,23.84
2022-08-21T13:54:31.371Z,23.61
2022-08-21T13:56:32.701Z,23.18
2022-08-21T13:58:36.048Z,23.21
2022-08-21T14:00:38.366Z,23.37
2022-08-21T14:02:39.680Z,23.45
2022-08-21T14:04:44.127Z,23.47
2022-08-21T14:06:55.170Z,23.48
2022-08-21T14:08:56.487Z,23.47
2022-08-21T14:10:57.790Z,23.41
2022-08-21T14:12:59.431Z,23.40
2022-08-21T14:15:00.860Z,23.37
2022-08-21T14:17:02.234Z,23.32
2022-08-21T14:19:23.527Z,23.34
2022-08-21T14:21:24.963Z,23.32
2022-08-21T14:23:26.539Z,23.27
2022-08-21T14:25:27.903Z,23.25
2022-08-21T14:27:29.235Z,23.24
2022-08-21T14:29:34.559Z,23.24
2022-08-21T14:31:36.047Z,23.23
2022-08-21T14:33:44.409Z,23.22
2022-08-21T14:35:45.887Z,23.20
2022-08-21T14:37:47.263Z,23.21
2022-08-21T14:39:51.638Z,23.25
2022-08-21T14:41:53.061Z,23.29
2022-08-21T14:43:59.850Z,23.30
2022-08-21T14:46:10.639Z,23.27
2022-08-21T14:48:11.970Z,23.27
2022-08-21T14:50:13.326Z,23.25
2022-08-21T14:52:14.650Z,23.26
2022-08-21T14:54:15.942Z,23.26
2022-08-21T14:56:17.304Z,23.27
2022-08-21T14:58:18.698Z,23.27
2022-08-21T15:00:20.412Z,23.23
2022-08-21T15:02:21.715Z,23.20
2022-08-21T15:04:23.095Z,23.16
2022-08-21T15:06:24.538Z,23.15
2022-08-21T15:08:25.903Z,23.14
2022-08-21T15:10:27.212Z,23.10
2022-08-21T15:12:28.680Z,23.06
2022-08-21T15:14:29.985Z,23.01
2022-08-21T15:16:32.362Z,23.00
2022-08-21T15:18:33.791Z,22.99
2022-08-21T15:20:35.131Z,22.99
2022-08-21T15:22:36.451Z,22.96
2022-08-21T15:24:38.421Z,22.97
2022-08-21T15:26:39.747Z,22.97
2022-08-21T15:28:41.208Z,22.98
2022-08-21T15:30:42.523Z,22.99
2022-08-21T15:32:43.822Z,22.96
2022-08-21T15:34:45.206Z,22.94
2022-08-21T15:36:46.543Z,22.92
2022-08-21T15:38:47.844Z,22.91
2022-08-21T15:40:51.854Z,22.90
2022-08-21T15:42:53.907Z,22.88
2022-08-21T15:44:55.203Z,22.85
2022-08-21T15:46:56.522Z,22.84
2022-08-21T15:48:59.940Z,22.82
2022-08-21T15:51:01.525Z,22.80
2022-08-21T15:53:02.837Z,22.79
2022-08-21T15:55:04.144Z,22.78
2022-08-21T15:57:05.536Z,22.77
2022-08-21T15:59:06.851Z,22.77
2022-08-21T16:01:09.147Z,22.77
2022-08-21T16:03:12.763Z,22.77
2022-08-21T16:05:14.171Z,22.77
2022-08-21T16:07:15.915Z,22.78
2022-08-21T16:09:17.273Z,22.76
2022-08-21T16:11:18.610Z,22.75
2022-08-21T16:13:20.221Z,22.25
2022-08-21T16:15:21.546Z,22.72
2022-08-21T16:17:22.844Z,22.71
2022-08-21T16:19:24.154Z,22.72
2022-08-21T16:21:25.543Z,22.71
2022-08-21T16:23:26.883Z,22.71
2022-08-21T16:25:28.219Z,22.72
2022-08-21T16:27:29.519Z,22.70
2022-08-21T16:29:31.006Z,22.68
2022-08-21T16:31:32.319Z,22.68
2022-08-21T16:33:33.625Z,22.67
2022-08-21T16:35:35.009Z,22.66
2022-08-21T16:37:36.379Z,22.66
2022-08-21T16:39:37.730Z,22.64
2022-08-21T16:41:39.337Z,22.63
2022-08-21T16:43:40.638Z,22.64
2022-08-21T16:45:41.938Z,22.63
2022-08-21T16:47:44.610Z,22.63
2022-08-21T16:49:47.062Z,22.62
2022-08-21T16:51:48.995Z,22.61
2022-08-21T16:53:50.326Z,22.63
2022-08-21T16:55:51.755Z,22.62
2022-08-21T16:57:53.064Z,22.61
2022-08-21T16:59:54.379Z,22.60
2022-08-21T17:01:55.759Z,22.59
2022-08-21T17:03:57.634Z,22.59
2022-08-21T17:05:58.943Z,22.59
2022-08-21T17:08:00.318Z,22.59
2022-08-21T17:10:01.702Z,22.59
2022-08-21T17:12:03.708Z,22.58
2022-08-21T17:14:05.105Z,22.56
2022-08-21T17:16:06.547Z,22.56
2022-08-21T17:18:08.193Z,22.54
2022-08-21T17:20:09.549Z,22.53
2022-08-21T17:22:10.861Z,22.51
2022-08-21T17:24:15.432Z,21.75
2022-08-21T17:26:16.935Z,22.50
2022-08-21T17:28:18.299Z,22.50
2022-08-21T17:30:19.615Z,22.48
2022-08-21T17:32:21.028Z,22.47
2022-08-21T17:34:22.335Z,22.45
2022-08-21T17:36:23.702Z,22.43
2022-08-21T17:38:25.146Z,22.41
2022-08-21T17:40:29.267Z,22.39
2022-08-21T17:42:30.791Z,22.38
2022-08-21T17:44:32.100Z,22.38
2022-08-21T17:46:33.407Z,22.36
2022-08-21T17:48:34.962Z,22.34
2022-08-21T17:50:36.875Z,22.33
2022-08-21T17:52:38.325Z,22.31
2022-08-21T17:54:41.245Z,22.32
2022-08-21T17:56:42.602Z,22.30
2022-08-21T17:58:43.922Z,22.27
2022-08-21T18:00:45.312Z,22.27
2022-08-21T18:02:46.770Z,22.25
2022-08-21T18:04:50.426Z,22.23
2022-08-21T18:06:52.042Z,22.20
2022-08-21T18:08:53.447Z,22.20
2022-08-21T18:10:54.758Z,22.17
2022-08-21T18:12:56.124Z,22.15
2022-08-21T18:14:57.502Z,22.13
2022-08-21T18:16:58.798Z,22.12
2022-08-21T18:19:00.115Z,22.11
2022-08-21T18:21:01.462Z,22.09
2022-08-21T18:23:02.791Z,22.07
2022-08-21T18:25:04.175Z,22.06
2022-08-21T18:27:05.488Z,22.04
2022-08-21T18:29:06.796Z,22.04
2022-08-21T18:31:08.134Z,22.03
2022-08-21T18:33:09.440Z,22.02
2022-08-21T18:35:11.328Z,22.01
2022-08-21T18:37:13.008Z,22.00
2022-08-21T18:39:35.586Z,21.99
2022-08-21T18:41:35.625Z,21.98
2022-08-21T18:43:36.942Z,21.97
2022-08-21T18:45:38.827Z,21.97
2022-08-21T18:47:40.139Z,21.96
2022-08-21T18:49:41.642Z,21.94
2022-08-21T18:51:45.391Z,21.92
2022-08-21T18:53:47.849Z,21.91
2022-08-21T18:55:57.783Z,21.91
2022-08-21T18:58:06.818Z,21.90
2022-08-21T19:00:11.874Z,21.86
2022-08-21T19:02:13.334Z,22.05
2022-08-21T19:04:40.949Z,22.49
2022-08-21T19:06:38.197Z,22.46
2022-08-21T19:08:39.575Z,22.44
2022-08-21T19:10:42.720Z,22.71
2022-08-21T19:12:47.102Z,22.72
2022-08-21T19:14:49.567Z,22.85
2022-08-21T19:16:54.534Z,22.90
2022-08-21T19:18:56.170Z,23.01
2022-08-21T19:21:01.864Z,22.97
2022-08-21T19:23:03.293Z,22.95
2022-08-21T19:25:04.632Z,22.96
2022-08-21T19:27:07.979Z,23.02
2022-08-21T19:29:09.570Z,23.08
2022-08-21T19:31:11.027Z,22.36
2022-08-21T19:33:12.694Z,22.68
2022-08-21T19:35:24.895Z,23.00
2022-08-21T19:37:26.220Z,23.07
2022-08-21T19:39:27.682Z,23.12
2022-08-21T19:41:29.978Z,23.11
2022-08-21T19:43:31.274Z,23.11
2022-08-21T19:45:32.603Z,23.16
2022-08-21T19:47:34.322Z,22.80
2022-08-21T19:49:35.702Z,22.94
2022-08-21T19:51:37.030Z,23.11
2022-08-21T19:53:38.353Z,23.19
2022-08-21T19:55:40.865Z,23.22
2022-08-21T19:57:42.223Z,23.40
2022-08-21T19:59:43.542Z,23.48
2022-08-21T20:01:45.119Z,23.30
2022-08-21T20:03:54.494Z,23.40
2022-08-21T20:05:56.115Z,22.46
2022-08-21T20:07:57.491Z,22.35
2022-08-21T20:09:58.839Z,22.69
2022-08-21T20:12:00.142Z,22.72
2022-08-21T20:14:01.470Z,22.71
2022-08-21T20:16:02.775Z,22.69
2022-08-21T20:18:04.570Z,22.66
2022-08-21T20:20:07.719Z,22.65
2022-08-21T20:22:09.895Z,22.64
2022-08-21T20:24:11.230Z,22.62
2022-08-21T20:26:16.257Z,22.62
2022-08-21T20:28:17.935Z,22.62
2022-08-21T20:30:23.035Z,22.60
2022-08-21T20:32:24.363Z,22.57
2022-08-21T20:34:25.688Z,22.57
2022-08-21T20:36:27.979Z,21.67
2022-08-21T20:38:29.284Z,22.54
2022-08-21T20:40:33.039Z,22.53
2022-08-21T20:42:34.747Z,22.55
2022-08-21T20:44:36.058Z,22.55
2022-08-21T20:46:37.395Z,22.53
2022-08-21T20:48:49.092Z,22.50
2022-08-21T20:50:51.222Z,22.50
2022-08-21T20:52:52.602Z,22.50
2022-08-21T20:54:54.015Z,22.49
2022-08-21T20:56:57.504Z,22.50
2022-08-21T20:58:58.850Z,22.50
2022-08-21T21:01:01.134Z,22.47
2022-08-21T21:03:04.237Z,22.45
2022-08-21T21:05:06.267Z,22.47
2022-08-21T21:07:09.177Z,22.46
2022-08-21T21:09:10.960Z,22.45
2022-08-21T21:11:13.738Z,22.44
2022-08-21T21:13:15.138Z,22.42
2022-08-21T21:15:16.463Z,22.40
2022-08-21T21:17:29.264Z,22.38
2022-08-21T21:19:35.555Z,22.36
2022-08-21T21:21:38.468Z,22.37
2022-08-21T21:23:39.806Z,22.36
2022-08-21T21:25:41.167Z,22.35
2022-08-21T21:27:42.502Z,22.33
2022-08-21T21:29:50.337Z,22.32
2022-08-21T21:31:55.321Z,22.28
2022-08-21T21:33:56.631Z,22.28
2022-08-21T21:35:57.927Z,22.27
2022-08-21T21:37:59.245Z,22.24
2022-08-21T21:40:01.405Z,22.31
2022-08-21T21:42:02.835Z,22.15
2022-08-21T21:44:05.658Z,22.21
2022-08-21T21:46:06.958Z,22.18
2022-08-21T21:48:08.710Z,22.13
2022-08-21T21:50:14.467Z,22.10
2022-08-21T21:52:20.370Z,22.12
2022-08-21T21:54:23.051Z,22.12
2022-08-21T21:56:29.111Z,22.09
2022-08-21T21:58:30.616Z,22.07
2022-08-21T22:00:34.730Z,22.03
2022-08-21T22:02:36.043Z,22.02
2022-08-21T22:04:37.493Z,22.01
2022-08-21T22:06:41.479Z,22.01
2022-08-21T22:08:48.799Z,21.10
2022-08-21T22:10:52.621Z,21.99
2022-08-21T22:12:55.028Z,21.98
2022-08-21T22:14:56.655Z,22.00
2022-08-21T22:16:57.996Z,22.01
2022-08-21T22:19:00.319Z,22.03
2022-08-21T22:21:02.782Z,22.01
2022-08-21T22:23:05.103Z,21.97
2022-08-21T22:25:06.440Z,21.96
2022-08-21T22:27:07.840Z,21.94
2022-08-21T22:29:09.151Z,21.95
2022-08-21T22:31:11.099Z,21.94
2022-08-21T22:33:12.452Z,21.95
2022-08-21T22:35:13.810Z,21.95
2022-08-21T22:37:15.635Z,21.92
2022-08-21T22:39:18.150Z,21.93
2022-08-21T22:41:19.454Z,21.92
2022-08-21T22:43:21.754Z,21.90
2022-08-21T22:45:23.366Z,21.88
2022-08-21T22:47:25.852Z,21.87
2022-08-21T22:49:27.222Z,21.81
2022-08-21T22:51:30.041Z,21.80
2022-08-21T22:53:33.832Z,21.81
2022-08-21T22:55:35.195Z,21.80
2022-08-21T22:57:36.512Z,21.78
2022-08-21T22:59:39.937Z,21.77
2022-08-21T23:01:41.327Z,21.74
2022-08-21T23:03:43.755Z,21.77
2022-08-21T23:05:45.590Z,21.86
2022-08-21T23:07:49.782Z,21.90
2022-08-21T23:09:53.174Z,21.87
2022-08-21T23:11:55.558Z,21.85
2022-08-21T23:13:58.018Z,21.89
2022-08-21T23:15:59.343Z,21.92
2022-08-21T23:18:01.054Z,21.91
2022-08-21T23:20:02.403Z,21.89
2022-08-21T23:22:04.532Z,21.82
2022-08-21T23:24:05.951Z,21.81
2022-08-21T23:26:22.782Z,21.81
2022-08-21T23:28:26.447Z,21.78
2022-08-21T23:30:27.785Z,21.78
2022-08-21T23:32:35.649Z,21.78
2022-08-21T23:34:40.592Z,21.75
2022-08-21T23:37:02.256Z,21.73
2022-08-21T23:39:05.183Z,21.67
2022-08-21T23:41:11.204Z,21.72
2022-08-21T23:43:12.686Z,21.68
2022-08-21T23:45:14.451Z,21.66
2022-08-21T23:47:19.088Z,21.65
2022-08-21T23:49:20.432Z,21.65
2022-08-21T23:51:21.782Z,21.63
2022-08-21T23:53:24.055Z,21.65
2022-08-21T23:55:25.439Z,21.68
2022-08-21T23:57:31.796Z,21.70
2022-08-21T23:59:49.532Z,21.72
